createdAt,value
2018-09-01T00:01:26.952Z,25.63
2018-09-01T00:21:18.574Z,25.93
2018-09-01T00:41:08.638Z,33.20
2018-09-01T00:43:38.043Z,33.30
2018-09-01T00:46:07.385Z,29.87
2018-09-01T00:48:35.811Z,28.33
2018-09-01T00:51:04.367Z,28.83
2018-09-01T00:53:33.482Z,30.70
2018-09-01T00:56:01.933Z,30.60
2018-09-01T00:58:30.414Z,30.73
2018-09-01T01:01:00.207Z,28.30
2018-09-01T01:03:28.802Z,32.40
2018-09-01T01:23:19.898Z,31.67
2018-09-01T01:43:10.581Z,28.70
2018-09-01T01:45:40.471Z,26.53
2018-09-01T01:48:08.896Z,30.13
2018-09-01T01:50:38.048Z,27.40
2018-09-01T01:53:06.604Z,30.93
2018-09-01T01:55:36.993Z,29.37
2018-09-01T01:58:05.526Z,26.93
2018-09-01T02:00:34.443Z,28.50
2018-09-01T02:03:02.966Z,28.63
2018-09-01T02:05:35.558Z,29.00
2018-09-01T02:08:04.590Z,29.03
2018-09-01T02:27:54.646Z,31.20
2018-09-01T02:30:23.109Z,30.37
2018-09-01T02:32:52.212Z,32.30
2018-09-01T02:35:22.362Z,37.23
2018-09-01T02:37:50.976Z,35.83
2018-09-01T02:40:20.015Z,34.73
2018-09-01T02:42:49.030Z,38.30
2018-09-01T02:45:17.497Z,38.63
2018-09-01T02:47:46.722Z,37.47
2018-09-01T02:50:15.261Z,34.93
2018-09-01T02:52:44.873Z,34.43
2018-09-01T02:55:13.361Z,35.80
2018-09-01T02:57:42.814Z,34.87
2018-09-01T03:00:16.614Z,34.23
2018-09-01T03:02:46.469Z,38.17
2018-09-01T03:05:16.150Z,36.43
2018-09-01T03:07:44.786Z,37.77
2018-09-01T03:10:13.298Z,33.17
2018-09-01T03:12:42.562Z,33.90
2018-09-01T03:15:11.142Z,33.70
2018-09-01T03:17:39.985Z,32.83
2018-09-01T03:20:08.481Z,37.00
2018-09-01T03:22:36.886Z,36.20
2018-09-01T03:25:06.151Z,36.83
2018-09-01T03:27:34.613Z,37.23
2018-09-01T03:30:03.763Z,36.17
2018-09-01T03:32:32.298Z,34.73
2018-09-01T03:35:00.941Z,37.67
2018-09-01T03:37:29.419Z,33.20
2018-09-01T03:39:58.154Z,32.07
2018-09-01T03:42:26.650Z,35.47
2018-09-01T04:02:16.660Z,34.73
2018-09-01T04:04:45.720Z,44.50
2018-09-01T04:24:35.468Z,34.27
2018-09-01T04:44:24.535Z,32.27
2018-09-01T04:46:53.457Z,32.93
2018-09-01T05:06:43.706Z,31.43
2018-09-01T05:26:32.773Z,31.40
2018-09-01T05:29:01.947Z,30.60
2018-09-01T05:31:30.377Z,31.40
2018-09-01T05:33:59.021Z,30.10
2018-09-01T05:36:27.529Z,32.37
2018-09-01T05:38:55.957Z,27.90
2018-09-01T05:41:24.844Z,29.37
2018-09-01T05:43:53.266Z,30.20
2018-09-01T05:46:21.767Z,29.23
2018-09-01T05:48:50.209Z,26.03
2018-09-01T05:51:18.636Z,27.87
2018-09-01T05:53:47.221Z,29.20
2018-09-01T05:56:18.073Z,27.53
2018-09-01T05:58:47.587Z,27.93
2018-09-01T06:18:38.156Z,30.30
2018-09-01T06:21:06.944Z,31.10
2018-09-01T06:23:37.073Z,30.83
2018-09-01T06:26:05.674Z,31.73
2018-09-01T06:45:55.640Z,30.83
2018-09-01T06:48:24.233Z,30.93
2018-09-01T06:50:53.616Z,30.40
2018-09-01T06:53:22.761Z,32.30
2018-09-01T06:55:53.824Z,30.90
2018-09-01T06:58:23.158Z,33.60
2018-09-01T07:00:51.625Z,30.57
2018-09-01T07:03:20.514Z,35.03
2018-09-01T07:05:48.944Z,32.50
2018-09-01T07:08:17.352Z,35.83
2018-09-01T07:10:45.970Z,34.33
2018-09-01T07:13:14.729Z,37.80
2018-09-01T07:15:43.625Z,32.83
2018-09-01T07:18:12.547Z,35.53
2018-09-01T07:20:41.055Z,30.77
2018-09-01T07:23:09.632Z,32.20
2018-09-01T07:25:38.682Z,30.37
2018-09-01T07:28:07.606Z,32.97
2018-09-01T07:30:36.794Z,28.00
2018-09-01T07:50:26.710Z,33.33
2018-09-01T07:52:56.134Z,30.33
2018-09-01T07:55:25.278Z,30.60
2018-09-01T07:57:54.038Z,28.70
2018-09-01T08:00:22.601Z,27.30
2018-09-01T08:02:51.152Z,27.63
2018-09-01T08:22:41.633Z,30.57
2018-09-01T08:25:10.241Z,29.53
2018-09-01T08:27:38.706Z,28.60
2018-09-01T08:30:08.703Z,28.00
2018-09-01T08:32:37.354Z,27.40
2018-09-01T08:35:05.895Z,28.77
2018-09-01T08:37:34.830Z,28.73
2018-09-01T08:57:24.093Z,27.00
2018-09-01T08:59:52.607Z,25.80
2018-09-01T09:19:42.283Z,27.60
2018-09-01T09:22:10.959Z,27.00
2018-09-01T09:24:40.097Z,27.80
2018-09-01T09:27:09.392Z,27.37
2018-09-01T09:29:39.017Z,26.07
2018-09-01T09:49:39.898Z,27.07
2018-09-01T09:52:08.547Z,26.30
2018-09-01T09:54:37.022Z,28.00
2018-09-01T09:57:05.892Z,26.87
2018-09-01T09:59:35.140Z,29.43
2018-09-01T10:19:25.454Z,29.13
2018-09-01T10:21:54.121Z,29.33
2018-09-01T10:24:22.606Z,28.13
2018-09-01T10:26:51.082Z,27.80
2018-09-01T10:29:20.605Z,27.20
2018-09-01T10:31:49.931Z,27.20
2018-09-01T10:51:40.253Z,24.47
2018-09-01T10:54:08.777Z,21.00
2018-09-01T11:13:58.495Z,22.00
2018-09-01T11:16:26.973Z,21.73
2018-09-01T11:18:55.401Z,22.37
2018-09-01T11:21:23.890Z,22.00
2018-09-01T11:23:53.295Z,20.37
2018-09-01T11:26:21.865Z,21.03
2018-09-01T11:28:51.228Z,20.90
2018-09-01T11:31:20.374Z,19.50
2018-09-01T11:33:48.944Z,17.00
2018-09-01T11:36:17.984Z,21.37
2018-09-01T11:38:46.398Z,19.13
2018-09-01T11:41:15.685Z,18.87
2018-09-01T11:43:44.437Z,22.20
2018-09-01T11:46:12.927Z,20.37
2018-09-01T11:48:41.392Z,18.33
2018-09-01T11:51:09.909Z,15.97
2018-09-01T11:53:39.058Z,17.83
2018-09-01T11:56:08.257Z,20.23
2018-09-01T11:58:37.057Z,18.20
2018-09-01T12:01:06.233Z,21.90
2018-09-01T12:03:34.995Z,19.17
2018-09-01T12:23:24.402Z,19.70
2018-09-01T12:43:14.445Z,19.00
2018-09-01T12:45:43.147Z,17.30
2018-09-01T13:05:33.239Z,17.77
2018-09-01T13:08:02.620Z,19.07
2018-09-01T13:10:31.095Z,20.67
2018-09-01T13:12:59.657Z,19.30
2018-09-01T13:15:28.315Z,22.20
2018-09-01T13:17:56.749Z,20.77
2018-09-01T13:37:47.880Z,20.70
2018-09-01T13:57:39.003Z,19.00
2018-09-01T14:17:28.862Z,16.93
2018-09-01T14:19:58.666Z,19.53
2018-09-01T14:39:48.773Z,20.03
2018-09-01T14:59:46.755Z,22.17
2018-09-01T15:02:16.541Z,22.00
2018-09-01T15:04:45.063Z,18.80
2018-09-01T15:07:14.127Z,20.77
2018-09-01T15:09:42.918Z,20.20
2018-09-01T15:12:11.399Z,19.43
2018-09-01T15:14:40.010Z,21.00
2018-09-01T15:17:09.033Z,19.63
2018-09-01T15:19:37.596Z,20.93
2018-09-01T15:22:06.158Z,17.43
2018-09-01T15:24:35.672Z,17.10
2018-09-01T15:27:04.188Z,15.00
2018-09-01T15:29:32.784Z,17.50
2018-09-01T15:32:02.561Z,18.33
2018-09-01T15:34:31.018Z,19.27
2018-09-01T15:37:00.124Z,19.37
2018-09-01T15:39:29.082Z,18.07
2018-09-01T15:41:57.561Z,16.40
2018-09-01T15:44:26.701Z,16.83
2018-09-01T15:46:55.656Z,17.07
2018-09-01T15:49:24.822Z,17.57
2018-09-01T15:51:53.434Z,19.23
2018-09-01T15:54:22.399Z,15.30
2018-09-01T15:56:51.138Z,15.77
2018-09-01T15:59:20.374Z,16.47
2018-09-01T16:01:49.668Z,14.97
2018-09-01T16:04:18.348Z,15.67
2018-09-01T16:06:46.856Z,15.60
2018-09-01T16:09:15.995Z,15.40
2018-09-01T16:29:06.297Z,16.73
2018-09-01T16:31:35.201Z,15.27
2018-09-01T16:34:03.703Z,14.87
2018-09-01T16:36:32.312Z,15.03
2018-09-01T16:39:00.915Z,15.03
2018-09-01T16:41:31.082Z,14.93
2018-09-01T16:43:59.646Z,14.53
2018-09-01T16:46:28.933Z,14.47
2018-09-01T16:48:58.079Z,15.43
2018-09-01T16:51:26.465Z,14.03
2018-09-01T16:53:54.953Z,13.07
2018-09-01T16:56:23.532Z,14.40
2018-09-01T16:58:53.278Z,17.23
2018-09-01T17:01:22.024Z,12.40
2018-09-01T17:03:50.467Z,12.87
2018-09-01T17:06:19.931Z,12.70
2018-09-01T17:08:49.545Z,15.50
2018-09-01T17:11:18.008Z,13.47
2018-09-01T17:13:47.338Z,15.17
2018-09-01T17:16:16.736Z,14.73
2018-09-01T17:18:45.210Z,15.07
2018-09-01T17:21:13.918Z,14.73
2018-09-01T17:23:42.987Z,15.13
2018-09-01T17:26:12.188Z,14.27
2018-09-01T17:28:40.613Z,16.63
2018-09-01T17:31:09.390Z,15.00
2018-09-01T17:33:39.475Z,14.50
2018-09-01T17:36:08.004Z,15.30
2018-09-01T17:38:36.692Z,14.30
2018-09-01T17:41:05.508Z,14.30
2018-09-01T17:43:34.032Z,14.60
2018-09-01T17:46:02.734Z,15.57
2018-09-01T17:48:31.248Z,15.53
2018-09-01T17:51:00.937Z,15.07
2018-09-01T17:53:30.062Z,15.57
2018-09-01T18:13:18.831Z,11.90
2018-09-01T18:15:47.386Z,13.17
2018-09-01T18:18:15.882Z,12.27
2018-09-01T18:20:45.088Z,15.67
2018-09-01T18:23:13.794Z,13.03
2018-09-01T18:25:42.336Z,13.87
2018-09-01T18:28:11.346Z,14.43
2018-09-01T18:30:39.964Z,13.53
2018-09-01T18:33:08.608Z,14.67
2018-09-01T18:35:37.658Z,14.00
2018-09-01T18:38:08.040Z,13.13
2018-09-01T18:40:37.070Z,14.50
2018-09-01T18:43:05.599Z,13.77
2018-09-01T19:02:55.729Z,14.30
2018-09-01T19:22:46.701Z,13.50
2018-09-01T19:25:15.335Z,14.23
2018-09-01T19:45:06.433Z,14.57
2018-09-01T19:47:35.033Z,15.33
2018-09-01T19:50:03.601Z,15.00
2018-09-01T20:09:54.454Z,14.37
2018-09-01T20:12:22.941Z,16.63
2018-09-01T20:32:12.382Z,15.97
2018-09-01T20:34:47.909Z,15.97
2018-09-01T20:37:18.096Z,15.67
2018-09-01T20:39:47.037Z,16.20
2018-09-01T20:42:16.560Z,16.63
2018-09-01T20:44:45.226Z,15.70
2018-09-01T20:47:14.321Z,16.17
2018-09-01T20:49:43.522Z,17.03
2018-09-01T20:52:12.235Z,17.63
2018-09-01T20:54:41.786Z,16.83
2018-09-01T20:57:10.353Z,17.50
2018-09-01T20:59:40.125Z,20.00
2018-09-01T21:02:08.675Z,16.97
2018-09-01T21:04:37.742Z,18.27
2018-09-01T21:24:28.030Z,17.40
2018-09-01T21:26:56.516Z,18.50
2018-09-01T21:29:24.995Z,16.57
2018-09-01T21:31:53.702Z,17.23
2018-09-01T21:34:23.127Z,16.60
2018-09-01T21:54:13.464Z,19.03
2018-09-01T21:56:41.950Z,18.50
2018-09-01T21:59:10.476Z,17.30
2018-09-01T22:01:39.489Z,17.83
2018-09-01T22:04:08.015Z,16.93
2018-09-01T22:06:36.637Z,18.07
2018-09-01T22:09:06.496Z,17.30
2018-09-01T22:11:35.035Z,17.60
2018-09-01T22:14:04.201Z,18.07
2018-09-01T22:16:32.822Z,18.03
2018-09-01T22:19:01.484Z,19.07
2018-09-01T22:38:51.265Z,16.83
2018-09-01T22:41:20.962Z,18.70
2018-09-01T22:43:49.470Z,17.30
2018-09-01T22:46:18.065Z,17.47
2018-09-01T22:48:46.567Z,17.17
2018-09-01T22:51:14.973Z,15.50
2018-09-01T22:53:44.490Z,16.53
2018-09-01T22:56:12.948Z,16.03
2018-09-01T22:58:42.011Z,16.97
2018-09-01T23:01:10.828Z,17.13
2018-09-01T23:20:59.488Z,17.33
2018-09-01T23:41:01.637Z,17.10
2018-09-01T23:43:30.144Z,17.43
2018-09-01T23:45:58.644Z,18.13
2018-09-01T23:48:28.047Z,17.83
2018-09-01T23:50:56.671Z,20.43
2018-09-01T23:53:25.211Z,18.33
2018-09-01T23:55:54.019Z,18.20
2018-09-01T23:58:23.034Z,18.33
